KMAE

Details ICAO KMAE (MAE)
Name KMAE - Madera Muni
Region United States
Timezone America/Los_Angeles (UTC-8.0)
Plans Departing 10
Arriving 1
Stats Elevation 253 ft / 77 m (AMSL)
Location 36.985976° -120.112681°
Runways 2
Magnetic Variation 12.948° E
Sunrise 2017-12-18 15:09:52 UTC / 2017-12-18 07:09:52 Local
Sunset 2017-12-19 00:47:16 UTC / 2017-12-18 16:47:16 Local
Advertisement - Login to hide

Runways

ID Width Length Bearing (true) Bearing (mag) Surface Threshold Offset Overrun Length
07 150 ft / 46 m 3,697 ft / 1,127 m 90.05° 77.10° Asphalt 0 ft / 0 m 0 ft / 0 m
12 150 ft / 46 m 5,550 ft / 1,692 m 135.10° 122.15° Asphalt 0 ft / 0 m 210 ft / 64 m
25 150 ft / 46 m 3,697 ft / 1,127 m 270.06° 257.11° Asphalt 0 ft / 0 m 0 ft / 0 m
30 150 ft / 46 m 5,550 ft / 1,692 m 315.11° 302.16° Asphalt 0 ft / 0 m 207 ft / 63 m

Map

Weather


0- 5 10 15 20 25 30 35+ Temperature / ° C

Clouds and Precipitation
Forecast for 2017-12-18 12:00 UTC. Updated 2 hours ago

Ground ~20,000 ft ~40,000 ft Winds

METAR

KMAE 181053Z AUTO 09005KT 10SM CLR 03/M03 A3018 RMK AO2 SLP218 T00331028

TAF

Not found

Frequencies

Recorded 134.72 MHz Madera AWOS
Unicom 122.80 MHz Madera CTAF
Warning: Do not use this data for real-world aviation or navigation. No guarantee of current accuracy is given.